sensor_id;sensor_type;location;lat;lon;timestamp;P1;durP1;ratioP1;P2;durP2;ratioP2
58139;SDS011;53185;47.378;18.922;2022-10-15T00:01:38;42.30;;;21.20;;
58139;SDS011;53185;47.378;18.922;2022-10-15T00:04:06;41.45;;;19.37;;
58139;SDS011;53185;47.378;18.922;2022-10-15T00:06:35;48.30;;;21.55;;
58139;SDS011;53185;47.378;18.922;2022-10-15T00:09:02;48.30;;;22.10;;
58139;SDS011;53185;47.378;18.922;2022-10-15T00:11:36;40.00;;;20.67;;
58139;SDS011;53185;47.378;18.922;2022-10-15T00:14:05;37.92;;;20.65;;
58139;SDS011;53185;47.378;18.922;2022-10-15T00:16:36;43.20;;;20.65;;
58139;SDS011;53185;47.378;18.922;2022-10-15T00:19:05;43.53;;;20.40;;
58139;SDS011;53185;47.378;18.922;2022-10-15T00:21:36;39.10;;;19.73;;
58139;SDS011;53185;47.378;18.922;2022-10-15T00:24:06;42.90;;;19.73;;
58139;SDS011;53185;47.378;18.922;2022-10-15T00:26:36;40.88;;;20.15;;
58139;SDS011;53185;47.378;18.922;2022-10-15T00:29:06;42.13;;;19.95;;
58139;SDS011;53185;47.378;18.922;2022-10-15T00:31:36;40.63;;;20.08;;
58139;SDS011;53185;47.378;18.922;2022-10-15T00:34:07;36.10;;;18.42;;
58139;SDS011;53185;47.378;18.922;2022-10-15T00:39:03;40.10;;;19.33;;
58139;SDS011;53185;47.378;18.922;2022-10-15T00:41:32;47.40;;;17.75;;
58139;SDS011;53185;47.378;18.922;2022-10-15T00:49:48;37.03;;;18.25;;
58139;SDS011;53185;47.378;18.922;2022-10-15T00:52:21;38.45;;;19.50;;
58139;SDS011;53185;47.378;18.922;2022-10-15T00:54:56;41.47;;;18.58;;
58139;SDS011;53185;47.378;18.922;2022-10-15T00:57:29;32.15;;;18.92;;
58139;SDS011;53185;47.378;18.922;2022-10-15T00:59:57;40.33;;;17.45;;
58139;SDS011;53185;47.378;18.922;2022-10-15T01:02:27;35.90;;;18.75;;
58139;SDS011;53185;47.378;18.922;2022-10-15T01:04:54;41.95;;;19.23;;
58139;SDS011;53185;47.378;18.922;2022-10-15T01:07:21;50.17;;;19.75;;
58139;SDS011;53185;47.378;18.922;2022-10-15T01:09:48;44.83;;;21.10;;
58139;SDS011;53185;47.378;18.922;2022-10-15T01:15:24;38.75;;;20.17;;
58139;SDS011;53185;47.378;18.922;2022-10-15T01:17:54;38.00;;;18.48;;
58139;SDS011;53185;47.378;18.922;2022-10-15T01:23:31;39.83;;;18.08;;
58139;SDS011;53185;47.378;18.922;2022-10-15T01:31:28;33.75;;;17.20;;
58139;SDS011;53185;47.378;18.922;2022-10-15T01:36:58;32.40;;;16.95;;
58139;SDS011;53185;47.378;18.922;2022-10-15T01:39:40;44.17;;;17.27;;
58139;SDS011;53185;47.378;18.922;2022-10-15T01:42:12;30.40;;;16.50;;
58139;SDS011;53185;47.378;18.922;2022-10-15T01:44:44;34.30;;;18.10;;
58139;SDS011;53185;47.378;18.922;2022-10-15T01:47:22;36.53;;;17.75;;
58139;SDS011;53185;47.378;18.922;2022-10-15T01:49:52;35.53;;;18.30;;
58139;SDS011;53185;47.378;18.922;2022-10-15T01:52:24;40.67;;;18.25;;
58139;SDS011;53185;47.378;18.922;2022-10-15T01:54:53;34.60;;;18.30;;
58139;SDS011;53185;47.378;18.922;2022-10-15T01:57:21;40.10;;;18.33;;
58139;SDS011;53185;47.378;18.922;2022-10-15T01:59:51;39.90;;;18.45;;
58139;SDS011;53185;47.378;18.922;2022-10-15T02:02:21;41.70;;;20.12;;
58139;SDS011;53185;47.378;18.922;2022-10-15T02:04:48;38.97;;;18.37;;
58139;SDS011;53185;47.378;18.922;2022-10-15T02:23:14;45.75;;;18.50;;
58139;SDS011;53185;47.378;18.922;2022-10-15T02:25:44;41.67;;;18.58;;
58139;SDS011;53185;47.378;18.922;2022-10-15T02:28:12;38.10;;;17.00;;
58139;SDS011;53185;47.378;18.922;2022-10-15T02:30:42;40.37;;;17.17;;
58139;SDS011;53185;47.378;18.922;2022-10-15T02:33:13;36.13;;;18.30;;
58139;SDS011;53185;47.378;18.922;2022-10-15T02:35:41;36.10;;;17.83;;
58139;SDS011;53185;47.378;18.922;2022-10-15T02:38:09;37.95;;;17.92;;
58139;SDS011;53185;47.378;18.922;2022-10-15T02:40:43;39.50;;;18.52;;
58139;SDS011;53185;47.378;18.922;2022-10-15T02:43:11;37.08;;;19.42;;
58139;SDS011;53185;47.378;18.922;2022-10-15T02:45:40;36.92;;;17.75;;
58139;SDS011;53185;47.378;18.922;2022-10-15T02:48:07;35.78;;;18.45;;
58139;SDS011;53185;47.378;18.922;2022-10-15T02:50:34;36.83;;;17.35;;
58139;SDS011;53185;47.378;18.922;2022-10-15T02:53:01;34.80;;;17.35;;
58139;SDS011;53185;47.378;18.922;2022-10-15T02:55:28;38.78;;;17.12;;
58139;SDS011;53185;47.378;18.922;2022-10-15T02:57:55;33.03;;;18.08;;
58139;SDS011;53185;47.378;18.922;2022-10-15T03:00:22;42.35;;;19.92;;
58139;SDS011;53185;47.378;18.922;2022-10-15T03:02:50;38.75;;;18.85;;
58139;SDS011;53185;47.378;18.922;2022-10-15T03:05:18;45.12;;;18.33;;
58139;SDS011;53185;47.378;18.922;2022-10-15T03:07:45;32.50;;;17.65;;
58139;SDS011;53185;47.378;18.922;2022-10-15T03:10:13;42.88;;;19.75;;
58139;SDS011;53185;47.378;18.922;2022-10-15T03:12:40;44.20;;;20.30;;
58139;SDS011;53185;47.378;18.922;2022-10-15T03:15:09;42.05;;;20.77;;
58139;SDS011;53185;47.378;18.922;2022-10-15T03:17:36;52.28;;;21.23;;
58139;SDS011;53185;47.378;18.922;2022-10-15T03:20:03;40.90;;;19.85;;
58139;SDS011;53185;47.378;18.922;2022-10-15T03:22:34;41.75;;;20.70;;
58139;SDS011;53185;47.378;18.922;2022-10-15T03:25:01;55.45;;;21.12;;
58139;SDS011;53185;47.378;18.922;2022-10-15T03:27:28;43.75;;;21.80;;
58139;SDS011;53185;47.378;18.922;2022-10-15T03:29:55;38.58;;;20.58;;
58139;SDS011;53185;47.378;18.922;2022-10-15T03:32:23;45.80;;;20.80;;
58139;SDS011;53185;47.378;18.922;2022-10-15T03:34:50;40.65;;;21.12;;
58139;SDS011;53185;47.378;18.922;2022-10-15T03:37:17;45.28;;;22.48;;
58139;SDS011;53185;47.378;18.922;2022-10-15T03:39:44;49.30;;;20.42;;
58139;SDS011;53185;47.378;18.922;2022-10-15T03:42:13;44.55;;;21.33;;
58139;SDS011;53185;47.378;18.922;2022-10-15T03:44:43;41.50;;;21.17;;
58139;SDS011;53185;47.378;18.922;2022-10-15T03:47:11;45.50;;;21.23;;
58139;SDS011;53185;47.378;18.922;2022-10-15T03:49:38;61.63;;;24.02;;
58139;SDS011;53185;47.378;18.922;2022-10-15T03:52:05;42.88;;;21.17;;
58139;SDS011;53185;47.378;18.922;2022-10-15T03:54:32;44.45;;;20.48;;
58139;SDS011;53185;47.378;18.922;2022-10-15T03:56:59;50.05;;;20.98;;
58139;SDS011;53185;47.378;18.922;2022-10-15T03:59:27;47.03;;;21.37;;
58139;SDS011;53185;47.378;18.922;2022-10-15T04:01:54;48.58;;;23.65;;
58139;SDS011;53185;47.378;18.922;2022-10-15T04:04:21;47.80;;;22.77;;
58139;SDS011;53185;47.378;18.922;2022-10-15T04:06:48;46.22;;;20.60;;
58139;SDS011;53185;47.378;18.922;2022-10-15T04:09:15;44.85;;;20.77;;
58139;SDS011;53185;47.378;18.922;2022-10-15T04:11:42;47.58;;;22.33;;
58139;SDS011;53185;47.378;18.922;2022-10-15T04:14:09;48.97;;;22.20;;
58139;SDS011;53185;47.378;18.922;2022-10-15T04:16:37;45.17;;;21.25;;
58139;SDS011;53185;47.378;18.922;2022-10-15T04:19:07;44.25;;;20.77;;
58139;SDS011;53185;47.378;18.922;2022-10-15T04:21:37;48.53;;;22.57;;
58139;SDS011;53185;47.378;18.922;2022-10-15T04:24:07;57.00;;;24.08;;
58139;SDS011;53185;47.378;18.922;2022-10-15T04:26:37;54.22;;;23.20;;
58139;SDS011;53185;47.378;18.922;2022-10-15T04:29:07;48.75;;;23.58;;
58139;SDS011;53185;47.378;18.922;2022-10-15T04:31:38;46.50;;;22.33;;
58139;SDS011;53185;47.378;18.922;2022-10-15T04:34:06;49.38;;;22.08;;
58139;SDS011;53185;47.378;18.922;2022-10-15T04:36:37;46.55;;;21.83;;
58139;SDS011;53185;47.378;18.922;2022-10-15T04:39:08;48.03;;;20.55;;
58139;SDS011;53185;47.378;18.922;2022-10-15T04:41:40;48.40;;;23.00;;
58139;SDS011;53185;47.378;18.922;2022-10-15T04:44:10;53.78;;;23.58;;
58139;SDS011;53185;47.378;18.922;2022-10-15T04:46:40;49.83;;;23.05;;
58139;SDS011;53185;47.378;18.922;2022-10-15T04:49:08;50.05;;;23.75;;
58139;SDS011;53185;47.378;18.922;2022-10-15T04:51:38;44.28;;;22.33;;
58139;SDS011;53185;47.378;18.922;2022-10-15T04:54:08;50.92;;;25.00;;
58139;SDS011;53185;47.378;18.922;2022-10-15T04:56:40;61.72;;;25.90;;
58139;SDS011;53185;47.378;18.922;2022-10-15T04:59:10;51.83;;;24.50;;
58139;SDS011;53185;47.378;18.922;2022-10-15T05:01:40;58.90;;;24.60;;
58139;SDS011;53185;47.378;18.922;2022-10-15T05:04:11;52.17;;;23.73;;
58139;SDS011;53185;47.378;18.922;2022-10-15T05:06:38;51.10;;;25.73;;
58139;SDS011;53185;47.378;18.922;2022-10-15T05:09:07;59.17;;;24.75;;
58139;SDS011;53185;47.378;18.922;2022-10-15T05:11:34;63.08;;;25.55;;
58139;SDS011;53185;47.378;18.922;2022-10-15T05:14:05;56.80;;;23.87;;
58139;SDS011;53185;47.378;18.922;2022-10-15T05:16:37;51.25;;;25.10;;
58139;SDS011;53185;47.378;18.922;2022-10-15T05:19:09;47.22;;;22.67;;
58139;SDS011;53185;47.378;18.922;2022-10-15T05:21:40;53.78;;;24.77;;
58139;SDS011;53185;47.378;18.922;2022-10-15T05:24:08;48.55;;;24.23;;
58139;SDS011;53185;47.378;18.922;2022-10-15T05:26:38;53.25;;;24.75;;
58139;SDS011;53185;47.378;18.922;2022-10-15T05:29:05;60.80;;;24.58;;
58139;SDS011;53185;47.378;18.922;2022-10-15T05:31:32;59.85;;;24.40;;
58139;SDS011;53185;47.378;18.922;2022-10-15T05:34:04;51.67;;;23.50;;
58139;SDS011;53185;47.378;18.922;2022-10-15T05:36:37;55.47;;;24.10;;
58139;SDS011;53185;47.378;18.922;2022-10-15T05:39:07;49.78;;;23.38;;
58139;SDS011;53185;47.378;18.922;2022-10-15T05:41:38;50.92;;;22.95;;
58139;SDS011;53185;47.378;18.922;2022-10-15T05:44:08;56.70;;;24.17;;
58139;SDS011;53185;47.378;18.922;2022-10-15T05:49:06;49.13;;;21.25;;
58139;SDS011;53185;47.378;18.922;2022-10-15T05:51:40;47.72;;;23.15;;
58139;SDS011;53185;47.378;18.922;2022-10-15T05:54:08;52.33;;;23.15;;
58139;SDS011;53185;47.378;18.922;2022-10-15T05:56:36;51.13;;;23.05;;
58139;SDS011;53185;47.378;18.922;2022-10-15T05:59:06;50.33;;;23.45;;
58139;SDS011;53185;47.378;18.922;2022-10-15T06:01:36;56.53;;;24.75;;
58139;SDS011;53185;47.378;18.922;2022-10-15T06:04:07;56.30;;;25.88;;
58139;SDS011;53185;47.378;18.922;2022-10-15T06:09:07;53.00;;;25.15;;
58139;SDS011;53185;47.378;18.922;2022-10-15T06:11:37;48.15;;;23.65;;
58139;SDS011;53185;47.378;18.922;2022-10-15T06:14:06;40.58;;;21.90;;
58139;SDS011;53185;47.378;18.922;2022-10-15T06:16:33;51.53;;;25.80;;
58139;SDS011;53185;47.378;18.922;2022-10-15T06:19:00;47.67;;;22.30;;
58139;SDS011;53185;47.378;18.922;2022-10-15T06:21:28;42.92;;;21.70;;
58139;SDS011;53185;47.378;18.922;2022-10-15T06:23:54;45.80;;;22.58;;
58139;SDS011;53185;47.378;18.922;2022-10-15T06:26:21;37.15;;;19.80;;
58139;SDS011;53185;47.378;18.922;2022-10-15T06:28:49;47.25;;;22.48;;
58139;SDS011;53185;47.378;18.922;2022-10-15T06:31:16;38.13;;;21.35;;
58139;SDS011;53185;47.378;18.922;2022-10-15T06:33:42;39.60;;;20.95;;
58139;SDS011;53185;47.378;18.922;2022-10-15T06:36:10;37.15;;;16.83;;
58139;SDS011;53185;47.378;18.922;2022-10-15T06:38:39;38.35;;;17.75;;
58139;SDS011;53185;47.378;18.922;2022-10-15T06:41:08;33.58;;;17.98;;
58139;SDS011;53185;47.378;18.922;2022-10-15T06:43:35;38.20;;;17.90;;
58139;SDS011;53185;47.378;18.922;2022-10-15T06:46:03;38.42;;;18.98;;
58139;SDS011;53185;47.378;18.922;2022-10-15T06:48:31;32.88;;;18.73;;
58139;SDS011;53185;47.378;18.922;2022-10-15T06:50:59;30.02;;;15.60;;
58139;SDS011;53185;47.378;18.922;2022-10-15T06:53:27;31.25;;;15.73;;
58139;SDS011;53185;47.378;18.922;2022-10-15T06:55:55;25.35;;;16.25;;
58139;SDS011;53185;47.378;18.922;2022-10-15T06:58:23;29.25;;;14.98;;
58139;SDS011;53185;47.378;18.922;2022-10-15T07:00:51;30.35;;;17.85;;
58139;SDS011;53185;47.378;18.922;2022-10-15T07:03:17;30.42;;;14.77;;
58139;SDS011;53185;47.378;18.922;2022-10-15T07:05:45;26.75;;;15.48;;
58139;SDS011;53185;47.378;18.922;2022-10-15T07:08:11;25.40;;;14.07;;
58139;SDS011;53185;47.378;18.922;2022-10-15T07:10:45;24.65;;;15.10;;
58139;SDS011;53185;47.378;18.922;2022-10-15T07:13:12;30.62;;;15.25;;
58139;SDS011;53185;47.378;18.922;2022-10-15T07:15:39;31.77;;;15.68;;
58139;SDS011;53185;47.378;18.922;2022-10-15T07:18:06;28.50;;;16.15;;
58139;SDS011;53185;47.378;18.922;2022-10-15T07:20:35;27.25;;;15.55;;
58139;SDS011;53185;47.378;18.922;2022-10-15T07:23:01;26.92;;;15.52;;
58139;SDS011;53185;47.378;18.922;2022-10-15T07:25:29;22.98;;;14.65;;
58139;SDS011;53185;47.378;18.922;2022-10-15T07:27:57;31.05;;;14.45;;
58139;SDS011;53185;47.378;18.922;2022-10-15T07:30:24;31.08;;;14.77;;
58139;SDS011;53185;47.378;18.922;2022-10-15T07:32:58;23.52;;;14.87;;
58139;SDS011;53185;47.378;18.922;2022-10-15T07:37:52;23.65;;;14.63;;
58139;SDS011;53185;47.378;18.922;2022-10-15T07:40:19;24.33;;;14.70;;
58139;SDS011;53185;47.378;18.922;2022-10-15T07:42:53;22.30;;;14.02;;
58139;SDS011;53185;47.378;18.922;2022-10-15T07:45:21;24.58;;;14.38;;
58139;SDS011;53185;47.378;18.922;2022-10-15T07:47:49;21.70;;;14.48;;
58139;SDS011;53185;47.378;18.922;2022-10-15T07:50:16;23.38;;;13.55;;
58139;SDS011;53185;47.378;18.922;2022-10-15T07:52:44;25.92;;;15.18;;
58139;SDS011;53185;47.378;18.922;2022-10-15T07:55:11;25.98;;;13.70;;
58139;SDS011;53185;47.378;18.922;2022-10-15T07:57:38;24.00;;;13.62;;
58139;SDS011;53185;47.378;18.922;2022-10-15T08:00:06;22.85;;;12.88;;
58139;SDS011;53185;47.378;18.922;2022-10-15T08:02:37;40.12;;;21.62;;
58139;SDS011;53185;47.378;18.922;2022-10-15T08:05:05;22.70;;;14.07;;
58139;SDS011;53185;47.378;18.922;2022-10-15T08:07:32;26.08;;;13.00;;
58139;SDS011;53185;47.378;18.922;2022-10-15T08:10:00;22.67;;;12.45;;
58139;SDS011;53185;47.378;18.922;2022-10-15T08:12:27;24.50;;;12.18;;
58139;SDS011;53185;47.378;18.922;2022-10-15T08:14:54;23.42;;;12.07;;
58139;SDS011;53185;47.378;18.922;2022-10-15T08:17:21;27.48;;;12.25;;
58139;SDS011;53185;47.378;18.922;2022-10-15T08:19:48;23.55;;;13.18;;
58139;SDS011;53185;47.378;18.922;2022-10-15T08:22:15;19.95;;;12.73;;
58139;SDS011;53185;47.378;18.922;2022-10-15T08:24:42;19.65;;;12.35;;
58139;SDS011;53185;47.378;18.922;2022-10-15T08:27:09;21.52;;;13.90;;
58139;SDS011;53185;47.378;18.922;2022-10-15T08:29:37;22.55;;;13.70;;
58139;SDS011;53185;47.378;18.922;2022-10-15T08:32:04;20.08;;;11.98;;
58139;SDS011;53185;47.378;18.922;2022-10-15T08:34:31;21.70;;;12.80;;
58139;SDS011;53185;47.378;18.922;2022-10-15T08:36:58;22.73;;;13.20;;
58139;SDS011;53185;47.378;18.922;2022-10-15T08:39:24;20.60;;;11.65;;
58139;SDS011;53185;47.378;18.922;2022-10-15T08:41:52;21.08;;;13.55;;
58139;SDS011;53185;47.378;18.922;2022-10-15T08:46:58;25.88;;;13.50;;
58139;SDS011;53185;47.378;18.922;2022-10-15T08:52:17;24.98;;;11.43;;
58139;SDS011;53185;47.378;18.922;2022-10-15T08:59:50;27.17;;;11.30;;
58139;SDS011;53185;47.378;18.922;2022-10-15T09:02:47;23.17;;;11.82;;
58139;SDS011;53185;47.378;18.922;2022-10-15T09:05:21;21.27;;;11.93;;
58139;SDS011;53185;47.378;18.922;2022-10-15T09:08:02;20.27;;;11.60;;
58139;SDS011;53185;47.378;18.922;2022-10-15T09:10:52;17.75;;;10.82;;
58139;SDS011;53185;47.378;18.922;2022-10-15T09:15:58;18.95;;;10.90;;
58139;SDS011;53185;47.378;18.922;2022-10-15T09:18:28;21.10;;;10.35;;
58139;SDS011;53185;47.378;18.922;2022-10-15T09:20:58;19.75;;;11.20;;
58139;SDS011;53185;47.378;18.922;2022-10-15T09:23:26;16.00;;;10.35;;
58139;SDS011;53185;47.378;18.922;2022-10-15T09:25:59;17.67;;;9.90;;
58139;SDS011;53185;47.378;18.922;2022-10-15T09:28:33;16.02;;;8.60;;
58139;SDS011;53185;47.378;18.922;2022-10-15T09:31:12;28.48;;;17.95;;
58139;SDS011;53185;47.378;18.922;2022-10-15T09:33:51;13.77;;;8.60;;
58139;SDS011;53185;47.378;18.922;2022-10-15T09:36:35;19.33;;;8.52;;
58139;SDS011;53185;47.378;18.922;2022-10-15T09:45:02;20.00;;;9.40;;
58139;SDS011;53185;47.378;18.922;2022-10-15T09:47:32;27.70;;;13.60;;
58139;SDS011;53185;47.378;18.922;2022-10-15T09:50:01;18.65;;;9.98;;
58139;SDS011;53185;47.378;18.922;2022-10-15T09:58:01;17.90;;;9.15;;
58139;SDS011;53185;47.378;18.922;2022-10-15T10:03:17;15.73;;;8.82;;
58139;SDS011;53185;47.378;18.922;2022-10-15T10:05:43;13.95;;;7.82;;
58139;SDS011;53185;47.378;18.922;2022-10-15T10:08:19;14.55;;;8.25;;
58139;SDS011;53185;47.378;18.922;2022-10-15T10:10:55;18.90;;;8.57;;
58139;SDS011;53185;47.378;18.922;2022-10-15T10:13:27;28.50;;;11.85;;
58139;SDS011;53185;47.378;18.922;2022-10-15T10:16:01;22.45;;;9.57;;
58139;SDS011;53185;47.378;18.922;2022-10-15T10:18:30;15.88;;;8.18;;
58139;SDS011;53185;47.378;18.922;2022-10-15T10:20:59;20.20;;;8.88;;
58139;SDS011;53185;47.378;18.922;2022-10-15T10:23:31;13.98;;;8.02;;
58139;SDS011;53185;47.378;18.922;2022-10-15T10:26:01;15.75;;;10.15;;
58139;SDS011;53185;47.378;18.922;2022-10-15T10:28:31;19.73;;;9.70;;
58139;SDS011;53185;47.378;18.922;2022-10-15T10:31:06;10.68;;;6.85;;
58139;SDS011;53185;47.378;18.922;2022-10-15T10:36:00;12.70;;;7.55;;
58139;SDS011;53185;47.378;18.922;2022-10-15T10:38:32;14.93;;;6.97;;
58139;SDS011;53185;47.378;18.922;2022-10-15T10:41:02;12.37;;;7.00;;
58139;SDS011;53185;47.378;18.922;2022-10-15T10:43:34;13.10;;;5.68;;
58139;SDS011;53185;47.378;18.922;2022-10-15T10:46:08;12.75;;;6.20;;
58139;SDS011;53185;47.378;18.922;2022-10-15T10:48:46;10.95;;;6.03;;
58139;SDS011;53185;47.378;18.922;2022-10-15T10:51:18;15.30;;;9.00;;
58139;SDS011;53185;47.378;18.922;2022-10-15T10:53:54;10.18;;;6.70;;
58139;SDS011;53185;47.378;18.922;2022-10-15T10:56:23;14.07;;;6.12;;
58139;SDS011;53185;47.378;18.922;2022-10-15T10:59:01;11.35;;;6.05;;
58139;SDS011;53185;47.378;18.922;2022-10-15T11:01:32;11.88;;;6.28;;
58139;SDS011;53185;47.378;18.922;2022-10-15T11:03:59;25.35;;;15.85;;
58139;SDS011;53185;47.378;18.922;2022-10-15T11:09:36;13.73;;;6.47;;
58139;SDS011;53185;47.378;18.922;2022-10-15T11:15:17;14.18;;;6.12;;
58139;SDS011;53185;47.378;18.922;2022-10-15T11:17:53;31.10;;;6.12;;
58139;SDS011;53185;47.378;18.922;2022-10-15T11:20:46;16.15;;;6.95;;
58139;SDS011;53185;47.378;18.922;2022-10-15T11:23:44;14.38;;;7.22;;
58139;SDS011;53185;47.378;18.922;2022-10-15T11:26:29;9.18;;;6.12;;
58139;SDS011;53185;47.378;18.922;2022-10-15T11:29:34;11.30;;;6.87;;
58139;SDS011;53185;47.378;18.922;2022-10-15T11:49:25;12.90;;;8.48;;
58139;SDS011;53185;47.378;18.922;2022-10-15T11:57:23;17.15;;;5.55;;
58139;SDS011;53185;47.378;18.922;2022-10-15T11:59:53;20.50;;;10.20;;
58139;SDS011;53185;47.378;18.922;2022-10-15T12:02:23;12.23;;;5.05;;
58139;SDS011;53185;47.378;18.922;2022-10-15T12:04:59;11.90;;;7.03;;
58139;SDS011;53185;47.378;18.922;2022-10-15T12:07:36;13.88;;;7.07;;
58139;SDS011;53185;47.378;18.922;2022-10-15T12:15:19;16.50;;;6.35;;
58139;SDS011;53185;47.378;18.922;2022-10-15T12:20:42;7.45;;;4.80;;
58139;SDS011;53185;47.378;18.922;2022-10-15T12:23:23;9.45;;;4.85;;
58139;SDS011;53185;47.378;18.922;2022-10-15T12:26:25;10.63;;;4.60;;
58139;SDS011;53185;47.378;18.922;2022-10-15T12:28:55;11.50;;;5.22;;
58139;SDS011;53185;47.378;18.922;2022-10-15T12:31:42;7.50;;;5.07;;
58139;SDS011;53185;47.378;18.922;2022-10-15T12:34:23;11.85;;;5.07;;
58139;SDS011;53185;47.378;18.922;2022-10-15T12:36:59;9.63;;;4.50;;
58139;SDS011;53185;47.378;18.922;2022-10-15T12:39:27;13.20;;;6.53;;
58139;SDS011;53185;47.378;18.922;2022-10-15T12:42:25;9.93;;;4.50;;
58139;SDS011;53185;47.378;18.922;2022-10-15T12:44:53;13.07;;;7.12;;
58139;SDS011;53185;47.378;18.922;2022-10-15T12:50:26;20.67;;;10.93;;
58139;SDS011;53185;47.378;18.922;2022-10-15T12:58:53;12.85;;;6.78;;
58139;SDS011;53185;47.378;18.922;2022-10-15T13:08:56;9.70;;;5.53;;
58139;SDS011;53185;47.378;18.922;2022-10-15T13:11:32;12.32;;;5.53;;
58139;SDS011;53185;47.378;18.922;2022-10-15T13:14:01;19.65;;;5.35;;
58139;SDS011;53185;47.378;18.922;2022-10-15T13:16:41;7.80;;;4.53;;
58139;SDS011;53185;47.378;18.922;2022-10-15T13:24:38;11.57;;;6.00;;
58139;SDS011;53185;47.378;18.922;2022-10-15T13:30:01;16.08;;;6.45;;
58139;SDS011;53185;47.378;18.922;2022-10-15T13:32:36;10.70;;;4.95;;
58139;SDS011;53185;47.378;18.922;2022-10-15T13:35:10;7.32;;;4.40;;
58139;SDS011;53185;47.378;18.922;2022-10-15T13:37:39;9.82;;;5.07;;
58139;SDS011;53185;47.378;18.922;2022-10-15T13:40:07;8.27;;;4.82;;
58139;SDS011;53185;47.378;18.922;2022-10-15T13:42:34;13.40;;;4.62;;
58139;SDS011;53185;47.378;18.922;2022-10-15T13:45:14;9.65;;;5.53;;
58139;SDS011;53185;47.378;18.922;2022-10-15T13:47:48;16.67;;;8.38;;
58139;SDS011;53185;47.378;18.922;2022-10-15T13:50:18;12.70;;;7.18;;
58139;SDS011;53185;47.378;18.922;2022-10-15T13:55:36;13.05;;;6.10;;
58139;SDS011;53185;47.378;18.922;2022-10-15T13:58:05;15.05;;;5.97;;
58139;SDS011;53185;47.378;18.922;2022-10-15T14:05:46;8.93;;;5.37;;
58139;SDS011;53185;47.378;18.922;2022-10-15T14:08:24;16.45;;;8.40;;
58139;SDS011;53185;47.378;18.922;2022-10-15T14:10:53;17.80;;;7.95;;
58139;SDS011;53185;47.378;18.922;2022-10-15T14:13:22;10.57;;;5.62;;
58139;SDS011;53185;47.378;18.922;2022-10-15T14:18:25;10.18;;;5.70;;
58139;SDS011;53185;47.378;18.922;2022-10-15T14:21:08;10.55;;;5.53;;
58139;SDS011;53185;47.378;18.922;2022-10-15T14:23:37;20.90;;;6.45;;
58139;SDS011;53185;47.378;18.922;2022-10-15T14:26:04;21.83;;;12.18;;
58139;SDS011;53185;47.378;18.922;2022-10-15T14:28:31;11.75;;;6.07;;
58139;SDS011;53185;47.378;18.922;2022-10-15T14:31:00;13.98;;;7.72;;
58139;SDS011;53185;47.378;18.922;2022-10-15T14:36:11;19.45;;;7.43;;
58139;SDS011;53185;47.378;18.922;2022-10-15T14:38:45;24.33;;;7.95;;
58139;SDS011;53185;47.378;18.922;2022-10-15T14:46:41;11.38;;;6.70;;
58139;SDS011;53185;47.378;18.922;2022-10-15T14:49:43;14.85;;;7.12;;
58139;SDS011;53185;47.378;18.922;2022-10-15T14:52:07;14.02;;;8.60;;
58139;SDS011;53185;47.378;18.922;2022-10-15T14:54:39;11.02;;;7.07;;
58139;SDS011;53185;47.378;18.922;2022-10-15T14:59:56;16.85;;;7.50;;
58139;SDS011;53185;47.378;18.922;2022-10-15T15:02:24;24.63;;;10.27;;
58139;SDS011;53185;47.378;18.922;2022-10-15T15:05:06;16.98;;;8.10;;
58139;SDS011;53185;47.378;18.922;2022-10-15T15:07:34;17.02;;;8.02;;
58139;SDS011;53185;47.378;18.922;2022-10-15T15:10:00;22.85;;;9.30;;
58139;SDS011;53185;47.378;18.922;2022-10-15T15:12:27;14.75;;;8.50;;
58139;SDS011;53185;47.378;18.922;2022-10-15T15:14:57;15.63;;;8.00;;
58139;SDS011;53185;47.378;18.922;2022-10-15T15:17:25;13.90;;;7.32;;
58139;SDS011;53185;47.378;18.922;2022-10-15T15:19:54;20.27;;;7.10;;
58139;SDS011;53185;47.378;18.922;2022-10-15T15:22:29;17.48;;;7.37;;
58139;SDS011;53185;47.378;18.922;2022-10-15T15:24:58;17.85;;;7.10;;
58139;SDS011;53185;47.378;18.922;2022-10-15T15:27:30;16.08;;;8.15;;
58139;SDS011;53185;47.378;18.922;2022-10-15T15:30:03;23.87;;;8.45;;
58139;SDS011;53185;47.378;18.922;2022-10-15T15:32:32;15.95;;;8.13;;
58139;SDS011;53185;47.378;18.922;2022-10-15T15:34:59;21.45;;;11.80;;
58139;SDS011;53185;47.378;18.922;2022-10-15T15:37:27;19.00;;;9.65;;
58139;SDS011;53185;47.378;18.922;2022-10-15T15:39:56;29.48;;;13.23;;
58139;SDS011;53185;47.378;18.922;2022-10-15T15:42:23;31.52;;;13.27;;
58139;SDS011;53185;47.378;18.922;2022-10-15T15:44:51;56.05;;;21.40;;
58139;SDS011;53185;47.378;18.922;2022-10-15T15:47:18;62.35;;;21.58;;
58139;SDS011;53185;47.378;18.922;2022-10-15T15:49:45;51.00;;;21.27;;
58139;SDS011;53185;47.378;18.922;2022-10-15T15:52:12;41.35;;;16.92;;
58139;SDS011;53185;47.378;18.922;2022-10-15T15:54:39;45.25;;;17.98;;
58139;SDS011;53185;47.378;18.922;2022-10-15T15:57:06;38.05;;;17.92;;
58139;SDS011;53185;47.378;18.922;2022-10-15T15:59:33;30.12;;;14.63;;
58139;SDS011;53185;47.378;18.922;2022-10-15T16:02:00;40.70;;;15.45;;
58139;SDS011;53185;47.378;18.922;2022-10-15T16:04:28;31.67;;;15.10;;
58139;SDS011;53185;47.378;18.922;2022-10-15T16:06:54;31.45;;;17.10;;
58139;SDS011;53185;47.378;18.922;2022-10-15T16:09:22;34.00;;;17.15;;
58139;SDS011;53185;47.378;18.922;2022-10-15T16:11:49;34.78;;;17.35;;
58139;SDS011;53185;47.378;18.922;2022-10-15T16:14:16;36.17;;;15.60;;
58139;SDS011;53185;47.378;18.922;2022-10-15T16:16:43;30.10;;;16.37;;
58139;SDS011;53185;47.378;18.922;2022-10-15T16:19:10;27.65;;;13.95;;
58139;SDS011;53185;47.378;18.922;2022-10-15T16:21:37;30.15;;;15.77;;
58139;SDS011;53185;47.378;18.922;2022-10-15T16:24:04;28.35;;;15.57;;
58139;SDS011;53185;47.378;18.922;2022-10-15T16:26:34;31.15;;;16.25;;
58139;SDS011;53185;47.378;18.922;2022-10-15T16:29:01;30.70;;;15.15;;
58139;SDS011;53185;47.378;18.922;2022-10-15T16:31:28;34.85;;;18.17;;
58139;SDS011;53185;47.378;18.922;2022-10-15T16:33:58;50.42;;;18.60;;
58139;SDS011;53185;47.378;18.922;2022-10-15T16:36:25;41.67;;;20.55;;
58139;SDS011;53185;47.378;18.922;2022-10-15T16:38:51;46.10;;;22.75;;
58139;SDS011;53185;47.378;18.922;2022-10-15T16:41:19;44.72;;;22.83;;
58139;SDS011;53185;47.378;18.922;2022-10-15T16:43:46;48.75;;;22.17;;
58139;SDS011;53185;47.378;18.922;2022-10-15T16:46:15;47.70;;;20.88;;
58139;SDS011;53185;47.378;18.922;2022-10-15T16:48:43;43.42;;;20.80;;
58139;SDS011;53185;47.378;18.922;2022-10-15T16:51:11;50.80;;;21.55;;
58139;SDS011;53185;47.378;18.922;2022-10-15T16:53:40;49.57;;;20.57;;
58139;SDS011;53185;47.378;18.922;2022-10-15T16:56:13;45.70;;;21.47;;
58139;SDS011;53185;47.378;18.922;2022-10-15T16:58:41;52.75;;;22.45;;
58139;SDS011;53185;47.378;18.922;2022-10-15T17:01:13;54.47;;;19.10;;
58139;SDS011;53185;47.378;18.922;2022-10-15T17:03:42;39.30;;;15.55;;
58139;SDS011;53185;47.378;18.922;2022-10-15T17:06:11;41.95;;;19.80;;
58139;SDS011;53185;47.378;18.922;2022-10-15T17:11:13;39.60;;;16.98;;
58139;SDS011;53185;47.378;18.922;2022-10-15T17:13:44;41.58;;;20.35;;